Latest Weather Observations for Holsworthy

IDN60801

Issued at 9:33 am EDT Wednesday 4 March 2015 (issued every 30 minutes, with the page automatically refreshed every 10 minutes)

About weather observations | Map of weather stations | Latest weather observations for NSW | Other Formats
Station Details ID: 066161 Name: HOLSWORTHY AERODROME AWS Lat: -33.99 Lon: 150.95 Height: 68.16 m
Data from the previous 72 hours. | See also: Recent months at Holsworthy
Date/Time
EDT
Temp
°C
App
Temp
°C
Dew
Point
Rel
Hum
%
Delta-T
°C
Wind Press
QNH
hPa
Press
MSL
hPa
Rain
since 9 am
mm
Dir
 
Spd
km/h
Gust
km/h
Spd
kts
Gust
kts
04/09:30am 23.2 25.1 18.5 75 3.0 SE 6 9 3 5 1013.9 1013.7 0.0
04/09:00am 23.0 25.2 18.3 75 3.0 S 4 7 2 4 1013.8 1013.6 -
04/08:30am 21.8 23.4 18.2 80 2.3 WSW 7 9 4 5 1013.6 1013.4 -
04/08:00am 20.5 22.2 18.1 86 1.5 W 6 9 3 5 1013.4 1013.2 -
04/07:30am 19.8 21.2 17.9 89 1.2 WSW 7 9 4 5 1013.2 1013.0 -
04/07:00am 19.7 21.2 17.5 87 1.3 WNW 6 6 3 3 1012.9 1012.7 -
04/06:30am 20.2 21.2 17.8 86 1.5 SSE 9 13 5 7 1012.7 1012.5 -
04/06:00am 20.5 20.8 17.9 85 1.6 SSE 13 19 7 10 1012.6 1012.4 -
04/05:30am 20.6 20.6 18.0 85 1.6 SSE 15 17 8 9 1012.6 1012.4 -
04/05:00am 20.9 21.2 17.9 83 1.9 SSE 13 17 7 9 1012.7 1012.5 -
04/04:30am 20.9 22.0 18.1 84 1.7 SSE 9 13 5 7 1012.8 1012.6 -
04/04:00am 20.9 22.0 18.1 84 1.7 SSE 9 13 5 7 1012.8 1012.6 -
04/03:30am 20.9 22.0 18.1 84 1.7 SSE 9 13 5 7 1012.9 1012.7 -
04/03:00am 20.9 21.6 17.9 83 1.9 SSE 11 17 6 9 1013.3 1013.1 0.0
04/02:30am 21.0 21.3 17.8 82 2.0 SSE 13 17 7 9 1013.5 1013.3 -
04/02:00am 20.9 21.3 18.1 84 1.7 SSE 13 17 7 9 1013.7 1013.5 -
04/01:30am 21.0 22.2 18.2 84 1.7 SSE 9 13 5 7 1014.0 1013.8 -
04/01:00am 21.1 22.3 18.3 84 1.7 SSE 9 11 5 6 1014.2 1014.0 -
04/12:30am 21.0 21.8 18.2 84 1.7 SSE 11 13 6 7 1014.4 1014.1 -
04/12:00am 21.3 21.6 17.9 81 2.1 SSE 13 26 7 14 1014.5 1014.2 -
 
Date/Time
EDT
Temp
°C
App
Temp
°C
Dew
Point
Rel
Hum
%
Delta-T
°C
Wind Press
QNH
hPa
Press
MSL
hPa
Rain
since 9 am
mm
Dir
 
Spd
km/h
Gust
km/h
Spd
kts
Gust
kts
03/11:30pm 21.5 22.7 18.3 82 2.0 S 9 11 5 6 1014.9 1014.6 -
03/11:00pm 21.5 22.6 17.9 80 2.2 SSE 9 11 5 6 1014.9 1014.6 -
03/10:30pm 21.9 23.4 17.7 77 2.6 SSE 6 7 3 4 1014.9 1014.6 -
03/10:00pm 22.3 23.5 17.4 74 3.0 SE 7 26 4 14 1015.0 1014.7 -
03/09:30pm 22.3 23.8 17.7 75 2.9 E 6 7 3 4 1015.0 1014.7 -
03/09:00pm 22.5 23.3 17.4 73 3.2 SE 9 11 5 6 1014.7 1014.4 -
03/08:30pm 22.3 23.1 17.4 74 3.0 SSE 9 9 5 5 1014.6 1014.3 -
03/08:00pm 22.7 24.0 17.2 71 3.4 E 6 9 3 5 1014.0 1013.8 -
03/07:30pm 22.9 23.2 16.9 69 3.7 ESE 11 15 6 8 1013.6 1013.4 -
03/07:00pm 23.0 22.7 16.5 67 4.0 E 13 20 7 11 1013.5 1013.3 -
03/06:30pm 23.3 23.5 16.8 67 4.0 E 11 15 6 8 1013.4 1013.2 -
03/06:00pm 23.4 23.5 17.4 69 3.7 ESE 13 17 7 9 1013.2 1013.0 -
03/05:30pm 23.4 23.2 16.7 66 4.1 E 13 19 7 10 1012.9 1012.7 -
03/05:00pm 23.5 22.6 16.8 66 4.1 ESE 17 20 9 11 1012.6 1012.4 -
03/04:30pm 23.8 22.7 16.3 63 4.6 ESE 17 24 9 13 1012.7 1012.5 -
03/03:30pm 26.9 25.4 16.8 54 6.3 E 20 28 11 15 1012.6 1012.4 0.0
03/03:00pm 27.9 26.5 17.1 51 6.8 E 20 30 11 16 1012.7 1012.5 0.0
03/02:30pm 28.5 27.3 16.1 47 7.7 E 17 24 9 13 1012.9 1012.7 0.0
03/02:00pm 29.2 29.0 15.7 44 8.3 NE 11 17 6 9 1012.9 1012.7 0.0
03/01:30pm 28.1 27.9 14.7 44 8.1 N 9 15 5 8 1013.5 1013.3 0.0
03/01:00pm 27.3 26.6 14.3 45 7.8 NNE 11 17 6 9 1014.0 1013.8 0.0
03/12:30pm 26.3 25.7 14.7 48 7.0 ENE 11 17 6 9 1014.6 1014.3 0.0
03/12:00pm 25.4 24.5 13.6 48 6.9 N 11 17 6 9 1015.5 1015.2 0.0
03/11:30am 24.7 23.4 13.6 50 6.5 N 13 20 7 11 1015.8 1015.5 0.0
03/11:00am 24.0 22.1 14.1 54 5.8 N 17 26 9 14 1016.0 1015.7 0.0
03/10:30am 23.1 21.6 14.1 57 5.3 N 15 24 8 13 1016.2 1015.9 0.0
03/10:00am 22.1 21.9 14.7 63 4.4 NNW 9 15 5 8 1016.4 1016.1 0.0
03/09:30am 20.5 20.5 15.3 72 3.1 NNW 9 13 5 7 1016.5 1016.2 0.0
03/09:00am 19.0 18.8 14.7 76 2.5 NW 9 13 5 7 1016.4 1016.1 0.0
03/08:30am 17.6 17.9 14.5 82 1.8 W 6 9 3 5 1016.0 1015.7 0.0
03/08:00am 16.6 16.8 14.2 86 1.4 W 6 7 3 4 1015.9 1015.6 0.0
03/07:30am 15.4 15.7 14.4 94 0.6 WSW 6 7 3 4 1015.7 1015.4 0.0
03/07:00am 14.0 13.6 12.9 93 0.6 WSW 7 9 4 5 1015.6 1015.3 0.0
03/06:30am 14.0 14.8 12.7 92 0.7 CALM 0 0 0 0 1015.4 1015.1 0.0
03/06:00am 14.7 15.8 13.4 92 0.7 CALM 0 0 0 0 1015.2 1014.9 0.0
03/05:30am 14.7 15.8 13.4 92 0.7 CALM 0 0 0 0 1015.2 1014.9 0.0
03/05:00am 14.9 16.0 13.4 91 0.8 CALM 0 0 0 0 1015.3 1015.0 0.0
03/04:30am 15.3 16.5 13.7 90 0.9 CALM 0 0 0 0 1015.3 1015.0 0.0
03/04:00am 15.6 16.4 13.8 89 1.0 SE 2 6 1 3 1015.4 1015.1 0.0
03/03:30am 15.9 16.1 14.1 89 1.0 SE 6 7 3 4 1015.7 1015.4 0.0
03/03:00am 16.2 16.2 13.7 85 1.4 SE 6 6 3 3 1016.0 1015.7 0.0
03/02:30am 16.9 16.8 14.0 83 1.7 SE 7 7 4 4 1016.3 1016.0 0.0
03/02:00am 17.7 18.0 14.4 81 1.9 SE 6 7 3 4 1016.7 1016.4 0.0
03/01:30am 18.1 19.6 14.6 80 2.0 CALM 0 0 0 0 1017.2 1016.9 0.0
03/01:00am 18.3 20.0 15.2 82 1.8 CALM 0 0 0 0 1017.5 1017.2 0.0
03/12:30am 18.2 19.7 14.7 80 2.0 CALM 0 0 0 0 1017.9 1017.6 0.0
03/12:00am 18.1 19.3 14.8 81 1.9 ESE 2 4 1 2 1018.1 1017.8 0.0
 
Date/Time
EDT
Temp
°C
App
Temp
°C
Dew
Point
Rel
Hum
%
Delta-T
°C
Wind Press
QNH
hPa
Press
MSL
hPa
Rain
since 9 am
mm
Dir
 
Spd
km/h
Gust
km/h
Spd
kts
Gust
kts
02/11:30pm 17.7 18.1 14.8 83 1.7 ESE 6 7 3 4 1018.1 1017.8 0.0
02/11:00pm 17.3 18.6 14.0 81 1.9 CALM 0 4 0 2 1018.0 1017.7 0.0
02/10:30pm 17.3 17.7 13.6 79 2.1 E 4 6 2 3 1018.1 1017.8 0.0
02/10:00pm 18.2 18.2 13.7 75 2.6 ENE 6 7 3 4 1018.0 1017.7 0.0
02/09:30pm 19.2 19.1 13.2 68 3.4 ENE 6 7 3 4 1018.0 1017.7 0.0
02/09:00pm 19.2 19.0 13.6 70 3.2 E 7 9 4 5 1017.9 1017.6 0.0
02/08:30pm 19.7 19.4 13.4 67 3.6 E 7 9 4 5 1018.0 1017.7 0.0
02/08:00pm 20.2 20.1 13.9 67 3.6 E 7 9 4 5 1017.8 1017.5 0.0
02/07:30pm 20.4 19.8 13.6 65 3.9 E 9 13 5 7 1017.4 1017.1 0.0
02/07:00pm 21.4 20.4 13.3 60 4.7 ESE 11 17 6 9 1017.4 1017.1 0.0
02/06:30pm 21.8 20.0 13.4 59 4.8 E 15 20 8 11 1017.2 1016.9 0.0
02/06:00pm 22.1 20.0 13.7 59 4.9 E 17 20 9 11 1017.0 1016.7 0.0
02/05:30pm 22.1 20.4 13.7 59 4.9 E 15 20 8 11 1017.0 1016.7 0.0
02/05:00pm 23.0 21.3 14.8 60 4.9 E 17 30 9 16 1016.9 1016.6 0.0
02/04:30pm 22.4 21.3 15.3 64 4.2 ESE 15 20 8 11 1016.9 1016.6 0.0
02/04:00pm 22.2 20.3 15.3 65 4.1 ESE 19 26 10 14 1017.1 1016.8 0.0
02/03:30pm 22.1 20.8 15.7 67 3.8 ESE 17 24 9 13 1017.4 1017.1 0.0
02/03:00pm 21.9 19.7 15.0 65 4.1 SE 20 26 11 14 1017.8 1017.5 0.0
02/02:30pm 22.7 21.0 15.8 65 4.2 ESE 19 26 10 14 1017.8 1017.5 0.0
02/02:00pm 23.0 21.4 15.1 61 4.7 SE 17 30 9 16 1018.1 1017.8 0.0
02/01:30pm 22.6 21.1 15.4 64 4.3 SSE 17 22 9 12 1018.7 1018.4 0.0
02/01:00pm 22.3 21.2 15.2 64 4.2 SE 15 20 8 11 1018.8 1018.5 0.0
02/12:30pm 21.9 20.2 14.8 64 4.2 SSE 17 26 9 14 1019.1 1018.8 0.0
02/12:00pm 21.9 20.4 14.3 62 4.4 SSE 15 20 8 11 1019.4 1019.1 0.0
02/11:30am 22.2 20.5 14.6 62 4.5 SE 17 24 9 13 1019.4 1019.1 0.0
02/11:00am 22.2 19.8 14.3 61 4.6 SE 20 28 11 15 1019.3 1019.0 0.0
02/10:30am 21.8 19.6 14.4 63 4.3 SSE 19 32 10 17 1019.2 1018.9 0.0
02/10:00am 21.1 19.1 14.0 64 4.1 S 17 24 9 13 1019.4 1019.1 0.0
02/09:30am 19.4 19.5 14.4 73 2.9 SSW 7 11 4 6 1019.1 1018.8 0.0
02/09:00am 18.1 17.5 13.4 74 2.7 WSW 9 13 5 7 1019.2 1018.9 8.0
02/08:30am 17.5 16.9 13.4 77 2.3 W 9 15 5 8 1018.8 1018.5 8.0
02/08:00am 16.6 15.8 12.9 79 2.1 WSW 9 13 5 7 1018.8 1018.5 8.0
02/07:30am 15.8 14.8 12.4 80 1.9 WSW 9 11 5 6 1018.5 1018.2 8.0
02/07:00am 15.3 13.9 12.1 81 1.7 WSW 11 13 6 7 1018.1 1017.8 8.0
02/06:30am 15.1 13.9 11.7 80 1.8 WSW 9 13 5 7 1017.8 1017.5 8.0
02/06:00am 15.6 14.0 11.6 77 2.2 WSW 11 13 6 7 1017.4 1017.1 8.0
02/05:30am 16.5 14.6 11.9 74 2.5 SW 13 20 7 11 1017.3 1017.0 8.0
02/05:00am 17.3 15.9 12.2 72 2.8 SW 11 17 6 9 1017.2 1016.9 8.0
02/04:30am 17.7 16.8 12.6 72 2.8 WSW 9 15 5 8 1017.0 1016.7 8.0
02/04:00am 17.9 17.0 12.6 71 3.0 WSW 9 13 5 7 1016.9 1016.6 8.0
02/03:30am 18.2 17.4 12.9 71 3.0 SW 9 13 5 7 1017.2 1016.9 8.0
02/03:00am 18.4 17.2 12.8 70 3.1 SW 11 20 6 11 1017.4 1017.1 8.0
02/02:30am 19.3 17.8 13.2 68 3.5 SSW 13 24 7 13 1017.2 1016.9 8.0
02/02:00am 19.6 18.2 13.3 67 3.6 S 13 24 7 13 1017.2 1016.9 8.0
02/01:30am 19.3 18.5 13.0 67 3.6 SW 9 17 5 9 1017.3 1017.0 8.0
02/01:00am 19.6 18.3 12.4 63 4.0 S 11 20 6 11 1017.2 1016.9 8.0
02/12:30am 20.0 17.9 12.3 61 4.3 S 15 24 8 13 1017.5 1017.2 8.0
02/12:00am 20.2 17.4 13.2 64 4.0 S 20 32 11 17 1017.2 1016.9 8.0
 
Date/Time
EDT
Temp
°C
App
Temp
°C
Dew
Point
Rel
Hum
%
Delta-T
°C
Wind Press
QNH
hPa
Press
MSL
hPa
Rain
since 9 am
mm
Dir
 
Spd
km/h
Gust
km/h
Spd
kts
Gust
kts
01/11:30pm 20.2 18.0 13.2 64 4.0 S 17 22 9 12 1017.1 1016.8 8.0
01/11:00pm 20.4 17.7 13.4 64 4.0 S 20 37 11 20 1016.9 1016.6 8.0
01/10:30pm 20.6 18.0 13.1 62 4.3 S 19 35 10 19 1016.5 1016.2 8.0
01/10:00pm 20.6 17.8 13.1 62 4.3 S 20 32 11 17 1016.0 1015.7 8.0
01/09:30pm 20.7 18.9 14.4 67 3.7 S 17 26 9 14 1015.4 1015.1 8.0
01/09:00pm 20.6 18.6 14.9 70 3.4 S 19 39 10 21 1014.7 1014.4 8.0
01/08:30pm 20.5 19.2 15.7 74 2.9 SSW 17 26 9 14 1013.8 1013.6 8.0
01/08:09pm 20.5 17.1 15.9 75 2.8 S 28 48 15 26 1013.0 1012.8 8.0
01/08:00pm 20.4 17.6 15.4 73 3.0 S 24 48 13 26 1012.8 1012.6 8.0
01/07:50pm 20.4 16.8 15.2 72 3.1 S 28 54 15 29 1012.3 1012.1 8.0
01/07:30pm 20.2 18.7 16.2 78 2.4 S 19 32 10 17 1012.0 1011.8 8.0
01/07:00pm 20.0 18.1 16.8 82 1.9 S 22 43 12 23 1010.9 1010.7 8.0
01/06:30pm 20.3 17.1 17.3 83 1.8 S 30 50 16 27 1010.0 1009.8 8.0
01/06:00pm 21.0 18.3 18.4 85 1.6 SSE 30 48 16 26 1008.5 1008.3 8.0
01/05:30pm 21.1 18.4 19.6 91 1.0 S 33 59 18 32 1007.1 1006.8 8.0
01/05:06pm 21.0 18.7 19.3 90 1.1 S 30 50 16 27 1007.2 1006.9 6.8
01/05:04pm 21.0 18.2 19.1 89 1.2 SSW 32 50 17 27 1007.3 1007.0 6.2
01/05:01pm 21.2 18.8 19.1 88 1.3 SSW 30 48 16 26 1007.7 1007.4 6.0
01/05:00pm 21.4 18.7 19.3 88 1.3 SSW 32 48 17 26 1008.0 1007.8 5.6
01/04:44pm 21.6 18.9 19.3 87 1.5 S 32 50 17 27 1006.9 1006.6 5.4
01/04:30pm 22.0 18.3 19.9 88 1.3 S 39 63 21 34 1004.9 1004.6 5.4
01/04:05pm 21.4 17.9 19.7 90 1.1 SSE 37 59 20 32 1004.3 1004.0 5.4
01/04:01pm 21.9 19.2 20.5 92 0.9 SSE 35 50 19 27 1004.5 1004.2 5.2
01/04:00pm 21.8 19.0 20.3 91 1.0 SSE 35 50 19 27 1004.4 1004.1 5.2
01/03:56pm 21.9 18.5 20.7 93 0.8 SSE 39 57 21 31 1004.0 1003.7 5.2
01/03:47pm 22.0 17.6 20.6 92 0.9 S 44 69 24 37 1004.0 1003.7 4.8
01/03:39pm 22.8 20.5 20.5 87 1.5 SSW 33 57 18 31 1004.4 1004.1 2.4
01/03:34pm 24.5 21.2 19.3 73 3.3 S 35 57 19 31 1005.6 1005.3 0.2
01/03:30pm 26.2 25.1 18.6 63 4.9 S 22 56 12 30 1005.2 1004.9 0.0
01/03:26pm 30.1 31.2 17.9 48 7.8 WSW 9 54 5 29 1004.1 1003.8 0.0
01/03:00pm 34.9 35.3 17.2 35 11.4 N 11 17 6 9 1002.8 1002.5 0.0
01/02:30pm 34.2 35.8 18.3 39 10.4 NNW 7 13 4 7 1003.5 1003.2 0.0
01/02:00pm 33.8 34.1 17.1 37 10.7 NNW 11 19 6 10 1004.0 1003.7 0.0
01/01:30pm 35.0 35.4 19.0 39 10.6 N 15 28 8 15 1004.3 1004.0 0.0
01/01:00pm 34.0 34.4 18.9 41 9.9 N 15 20 8 11 1004.8 1004.5 0.0
01/12:30pm 32.6 32.9 18.0 41 9.4 NNW 13 19 7 10 1005.4 1005.1 0.0
01/12:00pm 31.8 32.8 18.7 45 8.5 NNW 11 17 6 9 1005.8 1005.5 0.0
01/11:30am 30.2 31.7 18.9 50 7.3 NNW 9 15 5 8 1006.2 1005.9 0.0
01/11:00am 29.0 30.8 19.6 57 6.2 WNW 9 13 5 7 1006.4 1006.1 0.0
01/10:30am 27.3 29.0 19.4 62 5.1 NW 9 13 5 7 1006.3 1006.0 0.0
01/10:00am 25.9 27.4 18.8 65 4.6 NNW 9 13 5 7 1006.4 1006.1 0.0

Other Formats:

Comma delimited format used in spreadsheet applications
http://www.bom.gov.au/fwo/IDN60801/IDN60801.95761.axf

JavaScript Object Notation format (JSON) in row-major order
http://www.bom.gov.au/fwo/IDN60801/IDN60801.95761.json